Time;durP1;ratioP1;P1;durP2;ratioP2;P2;SDS_P1;SDS_P2;PMS_P1;PMS_P2;Temp;Humidity;BMP_temperature;BMP_pressure;BME280_temperature;BME280_humidity;BME280_pressure;Samples;Min_cycle;Max_cycle;Signal;HPM_P1;HPM_P2
2021/05/11 00:00:37;;;;;;;2.60;1.88;;;;;;;15.12;81.22;100243.63;4991118;28;20516;-79
2021/05/11 00:03:03;;;;;;;3.20;1.92;;;;;;;15.05;81.15;100250.19;5029910;28;20051;-79
2021/05/11 00:05:31;;;;;;;2.50;2.17;;;;;;;15.09;81.40;100237.59;4996778;28;20060;-81
2021/05/11 00:07:58;;;;;;;3.45;1.67;;;;;;;15.08;81.25;100243.84;4998455;28;20145;-80
2021/05/11 00:10:25;;;;;;;3.00;2.00;;;;;;;15.02;81.63;100242.31;4980881;28;20116;-81
2021/05/11 00:12:52;;;;;;;2.03;1.80;;;;;;;14.88;82.05;100227.00;5013654;28;20657;-79
2021/05/11 00:15:19;;;;;;;2.95;1.80;;;;;;;14.77;82.96;100233.72;5014073;28;20052;-80
2021/05/11 00:17:46;;;;;;;2.72;2.10;;;;;;;14.77;83.00;100231.06;5026489;28;20041;-81
2021/05/11 00:20:13;;;;;;;3.72;1.80;;;;;;;14.80;82.46;100228.28;4992614;28;20037;-80
2021/05/11 00:22:40;;;;;;;2.92;1.98;;;;;;;14.77;82.58;100229.25;5002349;28;20037;-80
2021/05/11 00:25:06;;;;;;;4.15;1.83;;;;;;;14.84;83.02;100229.84;5035455;28;20095;-80
2021/05/11 00:27:33;;;;;;;3.05;2.10;;;;;;;14.78;83.07;100220.34;5016078;28;20450;-80
2021/05/11 00:29:59;;;;;;;3.47;2.08;;;;;;;14.79;82.98;100211.44;5030173;28;20414;-81
2021/05/11 00:32:25;;;;;;;3.42;2.10;;;;;;;14.78;83.70;100207.06;5028470;28;20096;-79
2021/05/11 00:34:51;;;;;;;2.67;1.95;;;;;;;14.69;83.87;100207.47;4997155;28;20056;-79
2021/05/11 00:37:17;;;;;;;2.70;2.20;;;;;;;14.72;83.93;100207.34;5024120;28;20395;-80
2021/05/11 00:39:43;;;;;;;2.22;1.88;;;;;;;14.73;83.67;100197.56;4982888;28;20041;-80
2021/05/11 00:42:10;;;;;;;3.97;1.90;;;;;;;14.70;84.34;100205.66;5042497;28;20045;-79
2021/05/11 00:44:36;;;;;;;2.63;2.13;;;;;;;14.60;84.11;100191.94;5046366;28;20088;-79
2021/05/11 00:47:04;;;;;;;3.03;1.90;;;;;;;14.60;84.19;100184.81;5022229;28;20037;-80
2021/05/11 00:49:33;;;;;;;2.42;2.22;;;;;;;14.64;84.63;100181.09;5012519;28;20042;-81
2021/05/11 00:52:01;;;;;;;4.53;2.35;;;;;;;14.71;84.14;100184.31;4998810;28;20053;-80
2021/05/11 00:54:28;;;;;;;3.38;1.90;;;;;;;14.77;84.04;100181.41;5046820;28;20048;-79
2021/05/11 00:56:54;;;;;;;3.22;2.13;;;;;;;14.67;83.58;100180.09;5027084;28;20099;-80
2021/05/11 00:59:26;;;;;;;3.13;2.10;;;;;;;14.75;84.16;100171.78;5011205;28;20703;-80
2021/05/11 01:01:54;;;;;;;3.38;2.20;;;;;;;14.75;83.44;100163.78;5030061;28;20042;-79
2021/05/11 01:04:20;;;;;;;2.90;2.38;;;;;;;14.69;83.73;100156.94;5032353;28;20045;-80
2021/05/11 01:06:47;;;;;;;3.95;2.42;;;;;;;14.75;84.16;100166.44;5014173;28;20041;-80
2021/05/11 01:09:14;;;;;;;3.47;2.00;;;;;;;14.71;84.20;100172.81;4980967;28;20041;-79
2021/05/11 01:11:40;;;;;;;3.78;2.03;;;;;;;14.69;83.18;100167.59;5022174;28;20493;-79
2021/05/11 01:14:06;;;;;;;2.22;1.95;;;;;;;14.67;83.99;100160.63;5014552;28;20047;-79
2021/05/11 01:16:33;;;;;;;4.68;2.08;;;;;;;14.76;82.91;100153.09;5013016;28;20049;-79
2021/05/11 01:19:12;;;;;;;3.35;1.83;;;;;;;14.73;83.07;100168.31;5015172;28;20033;-80
2021/05/11 01:24:36;;;;;;;3.28;1.88;;;;;;;14.70;82.96;100160.47;5014971;28;20046;-79
2021/05/11 01:29:46;;;;;;;4.03;2.40;;;;;;;14.67;82.14;100148.19;5029116;28;20034;-80
2021/05/11 01:48:52;;;;;;;2.92;2.00;;;;;;;14.57;82.28;100123.81;4995791;28;20094;-79
2021/05/11 01:54:19;;;;;;;4.03;2.33;;;;;;;14.57;81.80;100121.16;5024166;28;20053;-79
2021/05/11 02:11:10;;;;;;;2.35;1.92;;;;;;;14.51;82.40;100121.44;5015835;28;20087;-79
2021/05/11 02:18:01;;;;;;;4.32;2.60;;;;;;;14.52;82.37;100120.50;5010080;28;20057;-78
2021/05/11 02:24:38;;;;;;;6.30;2.65;;;;;;;14.44;82.86;100109.31;5008703;28;20042;-80
2021/05/11 02:27:05;;;;;;;3.85;2.60;;;;;;;14.38;83.09;100104.28;5013081;28;20049;-81
2021/05/11 02:29:31;;;;;;;3.38;2.45;;;;;;;14.40;83.38;100102.41;4990851;28;20073;-80
2021/05/11 02:31:57;;;;;;;6.25;3.17;;;;;;;14.40;83.00;100098.91;4994904;28;20055;-80
2021/05/11 02:37:19;;;;;;;5.28;3.72;;;;;;;14.28;83.93;100092.31;5063523;23;20065;-80
2021/05/11 02:39:46;;;;;;;3.85;2.92;;;;;;;14.28;83.85;100090.53;4955674;28;20045;-80
2021/05/11 02:42:13;;;;;;;3.88;2.83;;;;;;;14.22;84.17;100092.63;4976775;28;20065;-79
2021/05/11 02:44:41;;;;;;;5.35;3.88;;;;;;;14.15;84.47;100088.50;4977091;28;20042;-80
2021/05/11 02:47:07;;;;;;;3.97;2.90;;;;;;;14.18;84.56;100089.22;4993476;28;20461;-80
2021/05/11 02:49:36;;;;;;;4.28;3.47;;;;;;;14.10;85.15;100083.38;4975072;28;20100;-80
2021/05/11 02:52:02;;;;;;;4.35;2.90;;;;;;;14.14;84.84;100078.81;5010525;28;20093;-80
2021/05/11 02:54:29;;;;;;;4.78;2.95;;;;;;;14.10;84.40;100091.34;4970912;28;20045;-80
2021/05/11 02:56:55;;;;;;;6.13;2.95;;;;;;;14.07;85.15;100089.69;4967533;28;20038;-79
2021/05/11 02:59:21;;;;;;;4.05;2.80;;;;;;;14.01;85.14;100099.72;4987870;28;20046;-80
2021/05/11 03:01:47;;;;;;;4.38;3.00;;;;;;;13.98;84.61;100105.19;4956401;28;20101;-80
2021/05/11 03:04:13;;;;;;;3.38;2.50;;;;;;;13.86;85.52;100106.56;4985782;28;20046;-80
2021/05/11 03:06:40;;;;;;;3.42;2.45;;;;;;;13.83;85.62;100104.03;4974434;28;20044;-80
2021/05/11 03:09:06;;;;;;;3.88;2.70;;;;;;;13.74;86.21;100101.78;4953387;28;20046;-81
2021/05/11 03:11:32;;;;;;;4.18;2.60;;;;;;;13.76;86.70;100086.63;4981962;28;20062;-80
2021/05/11 03:13:59;;;;;;;3.08;2.60;;;;;;;13.75;86.27;100096.41;4981658;28;20697;-80
2021/05/11 03:16:26;;;;;;;2.75;2.30;;;;;;;13.64;85.79;100097.78;4973451;28;20042;-80
2021/05/11 03:18:52;;;;;;;3.95;2.60;;;;;;;13.57;85.77;100094.53;4969967;28;20038;-79
2021/05/11 03:21:19;;;;;;;3.85;2.42;;;;;;;13.54;86.27;100094.66;4973821;28;20088;-80
2021/05/11 03:23:45;;;;;;;4.35;2.70;;;;;;;13.49;87.54;100091.31;4969117;28;20060;-80
2021/05/11 03:26:12;;;;;;;4.55;2.80;;;;;;;13.37;88.22;100090.06;4957481;28;20046;-80
2021/05/11 03:28:38;;;;;;;5.53;3.08;;;;;;;13.35;88.56;100083.06;4974327;28;20042;-80
2021/05/11 03:31:04;;;;;;;3.85;2.35;;;;;;;13.26;88.38;100084.31;4969353;28;20042;-80
2021/05/11 03:33:30;;;;;;;3.63;2.70;;;;;;;13.17;88.80;100087.28;4984638;28;20046;-79
2021/05/11 03:35:56;;;;;;;3.95;3.15;;;;;;;13.10;88.58;100091.97;4989318;28;20053;-80
2021/05/11 03:38:22;;;;;;;3.00;2.50;;;;;;;13.13;88.76;100093.66;4969879;28;20042;-79
2021/05/11 03:40:49;;;;;;;2.75;2.40;;;;;;;13.06;89.94;100086.88;4971976;28;20080;-80
2021/05/11 03:43:24;;;;;;;3.63;3.17;;;;;;;12.95;90.93;100089.94;4998674;28;20038;-80
2021/05/11 03:45:55;;;;;;;4.93;3.95;;;;;;;12.96;91.21;100079.28;4965900;28;20040;-80
2021/05/11 03:48:22;;;;;;;4.88;3.28;;;;;;;13.01;90.34;100081.72;4968441;28;20054;-79
2021/05/11 03:50:49;;;;;;;4.07;2.80;;;;;;;12.85;91.12;100076.16;4950031;28;20035;-80
2021/05/11 03:53:16;;;;;;;3.35;3.05;;;;;;;12.81;91.63;100087.81;4971145;28;20046;-80
2021/05/11 03:55:43;;;;;;;3.55;3.22;;;;;;;12.76;92.41;100084.47;4981417;28;20046;-81
2021/05/11 03:58:10;;;;;;;3.85;3.05;;;;;;;12.79;93.09;100083.50;4958163;28;20049;-80
2021/05/11 04:00:36;;;;;;;4.53;2.92;;;;;;;12.82;92.56;100089.56;4973491;28;20030;-81
2021/05/11 04:03:03;;;;;;;3.58;2.40;;;;;;;12.80;93.14;100086.09;4971260;28;20115;-80
2021/05/11 04:05:32;;;;;;;3.88;2.70;;;;;;;12.80;92.55;100083.44;4981477;28;20445;-80
2021/05/11 04:08:00;;;;;;;4.45;3.20;;;;;;;12.90;91.73;100087.47;4972654;28;20542;-80
2021/05/11 04:13:38;;;;;;;3.78;2.63;;;;;;;12.82;91.76;100086.03;4972987;28;20450;-79
2021/05/11 04:16:25;;;;;;;4.75;2.92;;;;;;;12.84;91.90;100095.66;4964545;28;20068;-80
2021/05/11 04:18:52;;;;;;;3.85;2.92;;;;;;;12.92;91.91;100076.78;4990975;28;20042;-79
2021/05/11 04:21:19;;;;;;;3.30;2.85;;;;;;;12.87;91.99;100087.59;5005116;28;20065;-80
2021/05/11 04:23:46;;;;;;;4.05;3.30;;;;;;;12.86;92.55;100079.69;4969781;28;20057;-79
2021/05/11 04:26:14;;;;;;;3.33;2.83;;;;;;;12.87;92.56;100073.47;4973287;28;20083;-80
2021/05/11 04:28:41;;;;;;;4.03;3.40;;;;;;;12.88;92.50;100070.75;4976603;28;20414;-80
2021/05/11 04:31:08;;;;;;;7.00;3.85;;;;;;;12.93;92.15;100060.81;4979761;28;20034;-79
2021/05/11 04:33:35;;;;;;;4.82;3.08;;;;;;;12.96;92.31;100060.72;4962787;28;20046;-80
2021/05/11 04:36:03;;;;;;;6.60;3.90;;;;;;;13.10;91.97;100052.19;4967771;28;517310;-80
2021/05/11 04:38:30;;;;;;;5.93;3.33;;;;;;;13.04;91.77;100041.00;4992602;28;20049;-81
2021/05/11 04:40:57;;;;;;;4.75;3.45;;;;;;;13.11;91.07;100043.31;5034640;23;20050;-86
2021/05/11 04:43:25;;;;;;;7.53;3.60;;;;;;;13.12;91.70;100045.06;4920048;29;20043;-85
2021/05/11 04:46:02;;;;;;;4.63;3.65;;;;;;;13.22;91.86;100050.88;4918040;29;20050;-84
2021/05/11 04:48:29;;;;;;;6.07;4.00;;;;;;;13.25;91.40;100048.09;4923239;29;20554;-85
2021/05/11 04:50:56;;;;;;;4.07;3.47;;;;;;;13.28;91.74;100047.94;4919032;29;20047;-82
2021/05/11 04:53:23;;;;;;;4.30;3.90;;;;;;;13.36;90.57;100045.84;4921985;29;20055;-86
2021/05/11 04:55:50;;;;;;;5.45;4.07;;;;;;;13.54;89.33;100038.94;4921350;29;20051;-86
2021/05/11 04:58:17;;;;;;;9.77;3.53;;;;;;;13.59;89.51;100036.06;4921824;28;20043;-86
2021/05/11 05:00:43;;;;;;;5.10;4.07;;;;;;;13.75;88.14;100039.78;4920387;29;20052;-86
2021/05/11 05:03:14;;;;;;;5.20;4.10;;;;;;;13.88;87.34;100030.38;4935896;29;20050;-86
2021/05/11 05:05:45;;;;;;;6.72;4.30;;;;;;;13.94;86.58;100029.22;4921259;29;20051;-85
2021/05/11 05:08:11;;;;;;;4.95;3.70;;;;;;;14.07;86.42;100033.91;4920251;29;20653;-85
2021/05/11 05:10:38;;;;;;;6.88;4.50;;;;;;;14.05;85.54;100041.09;4910781;29;20040;-84
2021/05/11 05:13:05;;;;;;;8.25;4.75;;;;;;;14.20;84.07;100031.56;4921117;29;20054;-84
2021/05/11 05:15:31;;;;;;;5.82;3.95;;;;;;;14.32;83.54;100030.16;4919028;29;20480;-86
2021/05/11 05:17:58;;;;;;;5.05;4.03;;;;;;;14.61;82.37;100035.00;4905162;29;20662;-86
2021/05/11 05:20:25;;;;;;;6.43;4.55;;;;;;;14.95;79.17;100032.53;4938971;28;20451;-83
2021/05/11 05:22:52;;;;;;;6.20;4.63;;;;;;;15.01;78.72;100017.13;4906734;29;20662;-85
2021/05/11 05:25:26;;;;;;;5.75;4.93;;;;;;;14.78;80.19;100028.03;4921652;28;20512;-85
2021/05/11 05:30:22;;;;;;;7.25;4.40;;;;;;;15.24;78.07;100016.00;4921739;29;20040;-83
2021/05/11 05:32:49;;;;;;;5.13;3.85;;;;;;;15.42;78.17;100008.91;4920557;29;20689;-84
2021/05/11 05:35:16;;;;;;;4.13;3.72;;;;;;;15.53;76.91;100006.53;4913978;28;20054;-85
2021/05/11 05:37:42;;;;;;;6.72;4.43;;;;;;;15.67;76.03;100003.22;4921703;29;20054;-85
2021/05/11 05:40:11;;;;;;;5.47;4.05;;;;;;;15.80;75.53;100006.09;4919990;29;20189;-84
2021/05/11 05:42:37;;;;;;;5.93;4.95;;;;;;;15.71;74.13;99997.63;4896088;29;20043;-82
2021/05/11 05:45:05;;;;;;;6.03;4.43;;;;;;;15.76;75.06;99992.06;4921155;28;20043;-84
2021/05/11 05:47:31;;;;;;;4.90;4.05;;;;;;;15.93;75.45;99986.72;4918190;29;20050;-83
2021/05/11 05:50:02;;;;;;;7.38;4.07;;;;;;;16.07;76.15;99985.13;4926226;29;20046;-84
2021/05/11 05:52:38;;;;;;;5.35;4.50;;;;;;;16.18;74.00;99988.94;4904370;29;20043;-85
2021/05/11 05:55:05;;;;;;;6.95;4.43;;;;;;;15.95;74.15;99984.81;4918203;28;20134;-86
2021/05/11 05:57:32;;;;;;;7.20;4.28;;;;;;;16.21;73.42;99978.09;4935341;29;20054;-84
2021/05/11 05:59:59;;;;;;;6.97;5.40;;;;;;;16.49;72.35;99988.13;4919205;29;20051;-86
2021/05/11 06:02:26;;;;;;;5.45;4.95;;;;;;;16.76;70.06;99988.41;4920118;29;20046;-85
2021/05/11 06:04:53;;;;;;;6.13;4.40;;;;;;;17.45;67.29;99995.06;4921402;29;20043;-86
2021/05/11 06:07:20;;;;;;;6.88;4.55;;;;;;;17.86;66.57;99984.59;4903033;29;20063;-85
2021/05/11 06:09:48;;;;;;;5.60;4.18;;;;;;;18.21;64.27;99993.09;4899181;29;20059;-84
2021/05/11 06:12:23;;;;;;;6.32;4.40;;;;;;;18.54;63.21;99992.78;4906316;29;20122;-83
2021/05/11 06:17:29;;;;;;;6.05;4.70;;;;;;;19.48;59.68;99976.78;4920605;29;20039;-84
2021/05/11 06:19:56;;;;;;;7.32;4.28;;;;;;;19.58;60.02;99977.91;4919277;29;20134;-84
2021/05/11 06:22:22;;;;;;;4.47;3.90;;;;;;;20.77;58.17;99972.13;4904052;29;20058;-84
2021/05/11 06:24:49;;;;;;;4.72;4.05;;;;;;;21.21;56.88;99965.25;4919075;29;20051;-85
2021/05/11 06:27:16;;;;;;;5.55;4.00;;;;;;;21.33;55.02;99972.41;4919540;29;20043;-83
2021/05/11 06:29:45;;;;;;;5.15;4.47;;;;;;;20.76;54.54;99959.66;4919127;29;20055;-85
2021/05/11 06:32:12;;;;;;;5.95;4.50;;;;;;;20.46;56.50;99957.41;4920016;29;20066;-85
2021/05/11 06:34:46;;;;;;;4.50;3.78;;;;;;;20.59;57.38;99954.66;4919411;29;20043;-82
2021/05/11 06:37:13;;;;;;;;;;;;;;;20.55;58.17;99947.81;4917805;29;20110;-83
2021/05/11 06:39:44;;;;;;;7.68;4.38;;;;;;;20.23;57.54;99939.38;4918170;29;19922;-85
2021/05/11 06:42:11;;;;;;;7.13;5.05;;;;;;;20.37;58.48;99939.25;4925596;28;20483;-85
2021/05/11 06:44:56;;;;;;;5.60;3.65;;;;;;;20.30;58.30;99934.44;4926760;29;20066;-83
2021/05/11 06:55:06;;;;;;;4.63;3.83;;;;;;;20.51;58.17;99920.38;4926409;28;20078;-85
2021/05/11 06:57:33;;;;;;;8.35;4.43;;;;;;;20.11;58.07;99919.69;4923589;29;20138;-86
2021/05/11 07:00:00;;;;;;;3.65;3.35;;;;;;;20.52;59.98;99910.50;4920928;29;20039;-85
2021/05/11 07:02:29;;;;;;;5.97;4.40;;;;;;;20.25;57.65;99911.47;4917370;29;20436;-83
2021/05/11 07:04:56;;;;;;;4.45;3.88;;;;;;;20.36;59.89;99913.41;4918756;29;20070;-86
2021/05/11 07:07:23;;;;;;;5.57;3.75;;;;;;;20.43;59.37;99914.72;4924745;29;20039;-84
2021/05/11 07:10:00;;;;;;;3.95;3.00;;;;;;;20.49;60.66;99902.66;4923406;29;20050;-84
2021/05/11 07:15:14;;;;;;;6.38;4.03;;;;;;;20.72;58.74;99896.44;4912905;28;20043;-85
2021/05/11 07:17:40;;;;;;;6.63;4.05;;;;;;;20.60;59.15;99893.78;4917818;29;20424;-84
2021/05/11 07:20:08;;;;;;;4.40;3.72;;;;;;;20.31;60.55;99903.97;4912432;29;20039;-83
2021/05/11 07:22:34;;;;;;;6.85;4.40;;;;;;;20.36;59.26;99908.03;4918269;29;20051;-84
2021/05/11 07:25:07;;;;;;;4.88;4.38;;;;;;;20.34;58.59;99909.09;4903110;28;20054;-87
2021/05/11 07:28:34;;;;;;;5.25;4.10;;;;;;;20.87;58.52;99909.69;4918838;29;20051;-84
2021/05/11 07:30:28;;;;;;;5.30;4.47;;;;;;;20.80;57.32;99923.56;4915529;29;20039;-86
2021/05/11 07:32:55;;;;;;;5.60;4.05;;;;;;;21.12;57.88;99933.72;4918610;29;20059;-85
2021/05/11 07:35:22;;;;;;;5.18;4.65;;;;;;;21.31;55.31;99933.22;4917731;29;20045;-84
2021/05/11 07:37:49;;;;;;;4.68;4.28;;;;;;;21.34;56.51;99931.13;4903845;29;20180;-86
2021/05/11 07:40:16;;;;;;;5.40;3.85;;;;;;;21.45;57.77;99933.00;4912745;29;20039;-86
2021/05/11 07:42:43;;;;;;;4.75;4.18;;;;;;;21.78;56.40;99920.63;4916625;29;20059;-83
2021/05/11 07:45:15;;;;;;;5.97;4.32;;;;;;;21.87;55.12;99926.13;4916982;28;20094;-86
2021/05/11 08:17:00;;;;;;;4.47;4.07;;;;;;;22.45;53.55;99923.31;4923763;29;20047;-83
2021/05/11 08:28:01;;;;;;;5.25;4.22;;;;;;;22.30;53.59;99928.09;4917943;29;20995;-84
2021/05/11 08:30:28;;;;;;;5.38;4.43;;;;;;;22.31;55.06;99931.66;4934983;29;20051;-84
2021/05/11 08:32:55;;;;;;;5.10;4.28;;;;;;;22.38;53.89;99931.03;4912899;29;20047;-84
2021/05/11 08:35:22;;;;;;;4.80;4.30;;;;;;;22.51;54.51;99930.00;4916637;29;20143;-85
2021/05/11 08:37:49;;;;;;;4.72;4.22;;;;;;;22.69;51.99;99915.88;4911643;29;20069;-85
2021/05/11 08:40:16;;;;;;;5.38;4.90;;;;;;;22.70;52.91;99906.84;4914707;28;20042;-85
2021/05/11 08:42:42;;;;;;;5.55;4.45;;;;;;;22.85;52.59;99902.03;4915610;29;20047;-85
2021/05/11 08:45:11;;;;;;;5.07;4.40;;;;;;;22.98;52.52;99899.19;4921400;28;20047;-83
2021/05/11 08:47:48;;;;;;;7.25;4.47;;;;;;;23.21;52.24;99903.50;4902801;29;20051;-83
2021/05/11 08:50:21;;;;;;;4.93;4.25;;;;;;;23.15;53.34;99901.31;4935576;29;20069;-83
2021/05/11 09:00:00;;;;;;;5.57;4.80;;;;;;;23.28;52.71;99893.03;4939504;28;20047;-83
2021/05/11 09:14:25;;;;;;;50.28;8.25;;;;;;;23.99;51.60;99887.78;4913291;29;20047;-83
2021/05/11 09:26:37;;;;;;;4.60;4.10;;;;;;;24.63;49.26;99841.50;4919496;29;20134;-83
2021/05/11 09:29:11;;;;;;;5.25;4.47;;;;;;;24.82;49.92;99835.25;4905179;29;20054;-83
2021/05/11 09:32:26;;;;;;;6.25;4.47;;;;;;;24.82;46.92;99838.81;4919862;29;20050;-82
2021/05/11 09:34:39;;;;;;;5.88;4.72;;;;;;;25.00;45.31;99844.34;4926014;29;20271;-84
2021/05/11 09:46:02;;;;;;;6.25;5.20;;;;;;;25.80;48.25;99837.66;4918238;29;20102;-86
2021/05/11 10:36:53;;;;;;;5.53;3.80;;;;;;;27.58;40.99;99774.47;4920116;29;20360;-83
2021/05/11 10:39:42;;;;;;;6.40;4.43;;;;;;;27.75;41.90;99770.88;4922966;29;20047;-84
2021/05/11 10:48:25;;;;;;;5.22;4.15;;;;;;;27.98;40.85;99747.53;4925234;29;20062;-83
2021/05/11 10:50:55;;;;;;;4.65;4.25;;;;;;;28.27;43.73;99757.13;4932746;29;20050;-83
2021/05/11 10:53:46;;;;;;;6.03;4.20;;;;;;;28.05;39.93;99751.28;4920490;29;20040;-83
2021/05/11 10:56:23;;;;;;;5.05;4.40;;;;;;;28.39;40.44;99753.06;4927473;29;20047;-83
2021/05/11 10:59:30;;;;;;;7.38;4.28;;;;;;;28.45;38.10;99755.13;4929265;29;20046;-84
2021/05/11 11:02:00;;;;;;;4.20;3.67;;;;;;;28.53;38.14;99752.41;4937770;29;20044;-83
2021/05/11 11:04:43;;;;;;;4.60;4.15;;;;;;;28.31;37.51;99740.34;4917393;29;20058;-85
2021/05/11 11:07:10;;;;;;;4.55;4.10;;;;;;;28.12;37.34;99747.91;4933942;29;20047;-84
2021/05/11 11:09:38;;;;;;;4.68;3.55;;;;;;;28.40;38.46;99749.34;4917351;29;20138;-85
2021/05/11 11:12:07;;;;;;;4.50;3.85;;;;;;;28.59;38.62;99745.47;4934454;29;20119;-86
2021/05/11 11:14:42;;;;;;;4.78;3.63;;;;;;;28.82;38.02;99743.75;4916746;29;20050;-84
2021/05/11 11:17:13;;;;;;;5.18;4.05;;;;;;;28.74;39.43;99737.47;4917397;29;20058;-84
2021/05/11 11:19:41;;;;;;;5.53;4.00;;;;;;;28.60;37.02;99731.72;4918122;29;20134;-84
2021/05/11 11:24:58;;;;;;;5.43;4.00;;;;;;;28.48;38.80;99733.03;4934514;29;20047;-83
2021/05/11 11:27:27;;;;;;;4.85;3.88;;;;;;;28.61;36.84;99732.56;4905613;29;20105;-84
2021/05/11 11:30:08;;;;;;;4.45;3.97;;;;;;;28.45;37.70;99724.41;4914949;29;20087;-85
2021/05/11 11:32:35;;;;;;;5.97;3.95;;;;;;;28.51;37.24;99724.56;4926258;29;20050;-83
2021/05/11 11:35:04;;;;;;;5.63;4.18;;;;;;;28.66;39.32;99719.28;4934183;28;20043;-84
2021/05/11 11:37:32;;;;;;;6.22;4.10;;;;;;;28.70;37.13;99720.66;4917809;29;20074;-84
2021/05/11 11:40:00;;;;;;;5.55;4.22;;;;;;;28.65;38.95;99706.72;4933448;29;20058;-85
2021/05/11 11:42:47;;;;;;;5.15;4.32;;;;;;;28.69;37.40;99705.38;4909164;29;20032;-83
2021/05/11 11:45:20;;;;;;;4.20;3.80;;;;;;;28.71;38.01;99700.59;4933000;28;20113;-82
2021/05/11 11:48:03;;;;;;;4.32;3.83;;;;;;;28.88;38.41;99709.59;4948479;29;20057;-83
2021/05/11 11:50:36;;;;;;;6.63;3.97;;;;;;;28.69;36.95;99699.09;4917093;29;20047;-83
2021/05/11 11:53:15;;;;;;;4.83;3.87;;;;;;;28.81;37.41;99705.84;4930068;29;20050;-84
2021/05/11 11:56:09;;;;;;;5.88;3.88;;;;;;;28.97;38.60;99714.03;4916064;29;20318;-84
2021/05/11 11:58:36;;;;;;;5.57;4.30;;;;;;;28.66;36.59;99713.84;4927266;29;20067;-83
2021/05/11 12:01:16;;;;;;;5.40;3.95;;;;;;;29.16;38.29;99715.50;4931834;29;20039;-84
2021/05/11 12:03:44;;;;;;;5.60;3.65;;;;;;;29.44;38.51;99715.94;4912808;29;20449;-85
2021/05/11 12:06:16;;;;;;;5.22;4.05;;;;;;;29.45;36.91;99723.09;4903876;29;20051;-83
2021/05/11 12:08:42;;;;;;;4.10;3.75;;;;;;;29.26;35.65;99701.69;4915788;29;20724;-84
2021/05/11 12:11:10;;;;;;;5.82;3.92;;;;;;;29.32;35.45;99710.03;4930795;29;20039;-84
2021/05/11 12:13:40;;;;;;;4.40;4.00;;;;;;;28.96;36.47;99706.88;4916587;29;20390;-83
2021/05/11 12:16:15;;;;;;;4.10;3.70;;;;;;;29.13;35.32;99705.84;4905446;29;20038;-84
2021/05/11 12:21:31;;;;;;;7.10;3.60;;;;;;;29.47;35.92;99701.97;4919548;29;20063;-85
2021/05/11 12:24:09;;;;;;;3.97;3.58;;;;;;;29.62;34.32;99699.41;4919459;29;20054;-85
2021/05/11 12:26:37;;;;;;;4.22;3.83;;;;;;;29.54;35.32;99700.28;4923848;29;20509;-84
2021/05/11 12:29:08;;;;;;;4.85;3.63;;;;;;;29.57;35.42;99682.75;4926452;28;20139;-84
2021/05/11 12:31:36;;;;;;;4.25;3.50;;;;;;;29.59;34.49;99681.53;4920824;29;20046;-84
2021/05/11 12:34:06;;;;;;;6.03;3.58;;;;;;;29.49;34.71;99680.03;4905495;29;20043;-84
2021/05/11 12:36:39;;;;;;;4.10;3.70;;;;;;;29.60;34.39;99685.97;4917221;29;20107;-84
2021/05/11 12:39:22;;;;;;;4.43;3.15;;;;;;;29.59;33.47;99681.53;4913441;29;20106;-84
2021/05/11 12:41:48;;;;;;;5.30;3.60;;;;;;;29.38;35.39;99673.09;4926374;28;20133;-84
2021/05/11 12:44:27;;;;;;;4.60;3.63;;;;;;;29.59;33.17;99667.06;4904576;29;20051;-85
2021/05/11 12:47:01;;;;;;;3.70;3.22;;;;;;;29.60;33.26;99671.53;4902177;29;20138;-84
2021/05/11 12:49:29;;;;;;;4.47;2.97;;;;;;;29.62;34.23;99662.13;4920495;28;20078;-84
2021/05/11 12:51:57;;;;;;;3.55;3.25;;;;;;;29.79;35.52;99664.78;4928165;29;20039;-83
2021/05/11 12:54:36;;;;;;;5.80;3.30;;;;;;;29.86;33.57;99654.88;4916829;29;20126;-84
2021/05/11 12:57:17;;;;;;;4.55;2.95;;;;;;;29.91;33.86;99666.03;4919241;29;20055;-84
2021/05/11 12:59:58;;;;;;;4.43;3.17;;;;;;;29.93;32.37;99669.44;4915854;29;20374;-84
2021/05/11 13:02:43;;;;;;;6.90;3.20;;;;;;;29.61;32.87;99665.03;4931440;29;20428;-84
2021/05/11 13:14:43;;;;;;;5.07;3.53;;;;;;;29.74;33.71;99667.16;4921470;29;20047;-84
2021/05/11 13:17:03;;;;;;;4.25;3.70;;;;;;;29.87;33.70;99651.94;4935753;29;20043;-84
2021/05/11 13:35:02;;;;;;;6.78;3.78;;;;;;;30.20;33.76;99638.13;4919384;28;20055;-84
2021/05/11 13:37:28;;;;;;;4.28;3.10;;;;;;;30.18;32.91;99632.84;4918803;29;20051;-84
2021/05/11 13:39:55;;;;;;;5.60;3.80;;;;;;;30.23;34.13;99635.88;4918006;29;20117;-84
2021/05/11 13:42:23;;;;;;;3.70;3.40;;;;;;;30.19;33.58;99625.53;4903244;29;20508;-84
2021/05/11 13:44:49;;;;;;;4.70;3.50;;;;;;;30.04;33.70;99630.06;4919450;29;20051;-83
2021/05/11 13:47:16;;;;;;;4.40;4.00;;;;;;;30.05;33.83;99631.75;4918466;29;20055;-83
2021/05/11 13:49:49;;;;;;;5.90;4.43;;;;;;;30.03;32.94;99631.09;4919552;29;20079;-86
2021/05/11 13:52:16;;;;;;;4.15;3.78;;;;;;;29.99;34.54;99625.13;4931912;29;20135;-84
2021/05/11 13:54:44;;;;;;;4.10;3.72;;;;;;;29.83;33.14;99617.09;4902245;29;20340;-84
2021/05/11 13:57:19;;;;;;;7.13;3.95;;;;;;;29.96;34.96;99614.63;4918145;29;20501;-87
2021/05/11 14:02:39;;;;;;;5.50;3.85;;;;;;;29.89;34.06;99605.47;4912158;29;20507;-84
2021/05/11 14:05:07;;;;;;;5.00;4.45;;;;;;;30.03;35.19;99606.56;4922928;28;20257;-84
2021/05/11 14:07:35;;;;;;;6.50;4.05;;;;;;;30.01;33.58;99601.28;4936214;29;20122;-85
2021/05/11 14:10:03;;;;;;;5.97;3.92;;;;;;;29.88;33.25;99610.06;4911036;29;20130;-83
2021/05/11 14:12:29;;;;;;;14.25;4.72;;;;;;;29.96;34.92;99595.56;4933526;29;20146;-85
2021/05/11 14:14:56;;;;;;;4.13;3.83;;;;;;;30.03;34.96;99601.97;4918831;29;20302;-84
2021/05/11 14:17:23;;;;;;;5.32;4.40;;;;;;;30.09;33.00;99595.81;4917065;29;20047;-84
2021/05/11 14:19:51;;;;;;;5.20;4.10;;;;;;;30.09;35.03;99600.41;4932885;29;20413;-84
2021/05/11 14:22:20;;;;;;;5.05;4.10;;;;;;;30.14;34.63;99595.25;4918950;29;20543;-84
2021/05/11 14:24:47;;;;;;;6.93;4.00;;;;;;;29.96;33.65;99592.84;4901350;29;20050;-86
2021/05/11 14:27:15;;;;;;;122.90;16.08;;;;;;;29.75;34.10;99600.81;4916523;29;20047;-83
2021/05/11 14:29:43;;;;;;;4.82;4.43;;;;;;;29.85;33.40;99588.66;4907052;29;20465;-84
2021/05/11 14:32:10;;;;;;;4.18;3.70;;;;;;;29.78;35.16;99595.84;4915491;29;20043;-85
2021/05/11 14:34:38;;;;;;;5.60;4.18;;;;;;;29.90;34.65;99585.38;4916714;29;20531;-85
2021/05/11 14:37:05;;;;;;;4.72;3.88;;;;;;;29.88;34.37;99582.84;4917517;29;20047;-84
2021/05/11 14:39:31;;;;;;;5.43;4.30;;;;;;;29.73;35.18;99589.25;4915414;29;20051;-85
2021/05/11 14:41:58;;;;;;;5.10;3.75;;;;;;;29.54;33.48;99588.69;4892953;29;20563;-83
2021/05/11 14:44:26;;;;;;;5.40;4.00;;;;;;;29.28;33.87;99583.53;4901664;29;20608;-83
2021/05/11 14:46:53;;;;;;;4.63;3.78;;;;;;;29.31;34.72;99585.06;4916159;29;20461;-84
2021/05/11 14:49:21;;;;;;;4.50;3.83;;;;;;;29.38;34.06;99580.59;4918348;29;20067;-83
2021/05/11 14:51:48;;;;;;;4.55;3.67;;;;;;;29.22;33.05;99588.84;4917181;29;20053;-83
2021/05/11 14:54:15;;;;;;;5.47;3.70;;;;;;;29.23;34.11;99582.38;4917105;29;20047;-83
2021/05/11 14:56:41;;;;;;;4.30;3.80;;;;;;;29.36;33.20;99585.38;4916920;29;20386;-83
2021/05/11 14:59:10;;;;;;;6.38;3.67;;;;;;;29.19;35.38;99575.59;4902119;29;20047;-84
2021/05/11 15:01:38;;;;;;;4.00;3.58;;;;;;;29.19;35.67;99575.59;4932453;29;20039;-83
2021/05/11 15:04:05;;;;;;;4.15;3.75;;;;;;;29.29;34.82;99563.47;4917790;29;20047;-84
2021/05/11 15:06:33;;;;;;;6.35;3.80;;;;;;;29.40;35.04;99568.50;4917464;29;20058;-84
2021/05/11 15:09:00;;;;;;;3.85;3.55;;;;;;;29.56;33.25;99561.28;4917981;29;20106;-85
2021/05/11 15:11:27;;;;;;;45.03;6.78;;;;;;;29.48;34.61;99562.16;4912722;29;20058;-83
2021/05/11 15:13:57;;;;;;;4.85;3.58;;;;;;;29.28;33.90;99560.94;4918034;29;20460;-84
2021/05/11 15:16:24;;;;;;;4.05;3.58;;;;;;;28.92;34.49;99564.13;4911276;29;20126;-83
2021/05/11 15:18:51;;;;;;;3.92;3.53;;;;;;;28.67;33.94;99557.06;4906670;29;20043;-84
2021/05/11 15:21:18;;;;;;;4.10;3.70;;;;;;;28.48;36.04;99548.28;4916720;29;20051;-83
2021/05/11 15:23:47;;;;;;;4.82;4.32;;;;;;;28.36;35.95;99557.81;4899641;29;20383;-84
2021/05/11 15:26:16;;;;;;;5.70;3.83;;;;;;;28.53;35.19;99550.50;4916945;29;20047;-83
2021/05/11 15:28:43;;;;;;;3.78;3.47;;;;;;;28.42;36.03;99551.72;4914428;29;20062;-83
2021/05/11 15:31:11;;;;;;;5.40;3.90;;;;;;;28.30;37.87;99553.91;4915134;29;20051;-85